createdAt,value
2019-04-10T00:01:07.465Z,57.70
2019-04-10T00:02:41.751Z,57.80
2019-04-10T00:04:17.379Z,57.00
2019-04-10T00:05:53.153Z,57.80
2019-04-10T00:07:29.138Z,58.00
2019-04-10T00:09:06.624Z,57.90
2019-04-10T00:10:43.470Z,57.80
2019-04-10T00:12:19.210Z,57.70
2019-04-10T00:13:55.349Z,57.80
2019-04-10T00:15:31.003Z,57.80
2019-04-10T00:17:06.961Z,57.80
2019-04-10T00:18:42.610Z,57.90
2019-04-10T00:20:18.428Z,58.00
2019-04-10T00:21:54.046Z,58.00
2019-04-10T00:23:29.572Z,58.00
2019-04-10T00:25:06.525Z,58.00
2019-04-10T00:26:42.089Z,58.10
2019-04-10T00:28:17.876Z,58.30
2019-04-10T00:29:54.383Z,58.30
2019-04-10T00:31:29.941Z,58.30
2019-04-10T00:33:05.552Z,58.20
2019-04-10T00:34:42.067Z,58.20
2019-04-10T00:36:18.747Z,58.20
2019-04-10T00:37:55.460Z,58.30
2019-04-10T00:39:31.055Z,58.20
2019-04-10T00:41:06.581Z,58.60
2019-04-10T00:42:43.225Z,58.60
2019-04-10T00:44:19.445Z,58.50
2019-04-10T00:45:55.023Z,59.10
2019-04-10T00:47:30.918Z,58.60
2019-04-10T00:49:07.191Z,59.00
2019-04-10T00:50:42.834Z,59.20
2019-04-10T00:52:18.352Z,59.00
2019-04-10T00:53:53.951Z,59.10
2019-04-10T00:55:30.165Z,59.00
2019-04-10T00:57:05.819Z,58.90
2019-04-10T00:58:41.600Z,59.00
2019-04-10T01:00:17.479Z,59.00
2019-04-10T01:01:54.195Z,59.30
2019-04-10T01:03:46.659Z,59.30
2019-04-10T01:05:22.905Z,59.40
2019-04-10T01:06:58.414Z,59.30
2019-04-10T01:08:34.860Z,59.50
2019-04-10T01:10:12.325Z,59.60
2019-04-10T01:11:47.978Z,59.40
2019-04-10T01:13:23.522Z,59.80
2019-04-10T01:15:00.174Z,60.10
2019-04-10T01:16:35.833Z,60.00
2019-04-10T01:18:11.358Z,59.80
2019-04-10T01:19:48.160Z,59.80
2019-04-10T01:21:23.656Z,59.90
2019-04-10T01:22:59.450Z,59.80
2019-04-10T01:24:35.573Z,59.90
2019-04-10T01:26:11.174Z,59.80
2019-04-10T01:27:47.905Z,59.80
2019-04-10T01:29:23.573Z,60.20
2019-04-10T01:30:59.197Z,60.10
2019-04-10T01:32:34.709Z,60.10
2019-04-10T01:34:11.431Z,60.30
2019-04-10T01:35:47.018Z,60.90
2019-04-10T01:37:22.996Z,60.20
2019-04-10T01:38:58.452Z,60.20
2019-04-10T01:40:35.192Z,60.20
2019-04-10T01:42:10.752Z,60.20
2019-04-10T01:43:46.816Z,60.30
2019-04-10T01:45:22.330Z,60.40
2019-04-10T01:46:59.035Z,60.50
2019-04-10T01:48:34.898Z,60.50
2019-04-10T01:50:10.669Z,60.30
2019-04-10T01:51:46.283Z,60.50
2019-04-10T01:53:21.870Z,60.30
2019-04-10T01:54:57.611Z,60.20
2019-04-10T01:56:36.043Z,61.00
2019-04-10T01:58:14.564Z,60.10
2019-04-10T01:59:51.273Z,60.40
2019-04-10T02:01:28.459Z,60.60
2019-04-10T02:03:03.988Z,60.60
2019-04-10T02:04:39.666Z,60.70
2019-04-10T02:06:15.223Z,60.50
2019-04-10T02:08:02.099Z,60.40
2019-04-10T02:09:29.771Z,60.50
2019-04-10T02:11:05.308Z,60.60
2019-04-10T02:12:41.034Z,60.40
2019-04-10T02:14:16.527Z,60.40
2019-04-10T02:15:52.431Z,60.50
2019-04-10T02:17:28.569Z,60.70
2019-04-10T02:19:04.423Z,60.40
2019-04-10T02:20:39.987Z,60.40
2019-04-10T02:22:16.091Z,60.30
2019-04-10T02:23:52.408Z,60.40
2019-04-10T02:25:28.447Z,60.40
2019-04-10T02:27:04.325Z,60.40
2019-04-10T02:28:40.169Z,60.40
2019-04-10T02:30:17.532Z,60.50
2019-04-10T02:31:54.931Z,60.40
2019-04-10T02:33:31.402Z,60.40
2019-04-10T02:35:13.172Z,60.30
2019-04-10T02:36:46.961Z,60.30
2019-04-10T02:38:40.076Z,60.30
2019-04-10T02:40:02.295Z,60.30
2019-04-10T02:41:38.583Z,60.30
2019-04-10T02:43:15.597Z,60.20
2019-04-10T02:44:52.319Z,60.20
2019-04-10T02:46:29.289Z,60.30
2019-04-10T02:48:06.157Z,60.30
2019-04-10T02:49:42.593Z,60.10
2019-04-10T02:51:19.537Z,60.10
2019-04-10T02:52:57.105Z,59.90
2019-04-10T02:54:33.529Z,60.00
2019-04-10T02:56:09.248Z,60.00
2019-04-10T02:57:45.941Z,60.00
2019-04-10T02:59:23.948Z,59.90
2019-04-10T03:01:01.157Z,59.90
2019-04-10T03:02:38.653Z,59.90
2019-04-10T03:04:14.170Z,59.80
2019-04-10T03:05:51.053Z,59.70
2019-04-10T03:07:28.206Z,59.70
2019-04-10T03:09:18.957Z,59.80
2019-04-10T03:10:49.462Z,59.80
2019-04-10T03:12:21.950Z,59.80
2019-04-10T03:13:59.269Z,59.80
2019-04-10T03:15:35.968Z,59.80
2019-04-10T03:17:12.226Z,59.80
2019-04-10T03:18:47.830Z,59.90
2019-04-10T03:20:24.640Z,59.80
2019-04-10T03:22:01.725Z,59.80
2019-04-10T03:23:37.804Z,59.90
2019-04-10T03:25:14.945Z,60.10
2019-04-10T03:26:50.655Z,59.90
2019-04-10T03:28:27.075Z,59.90
2019-04-10T03:30:03.074Z,59.90
2019-04-10T03:31:39.609Z,59.90
2019-04-10T03:33:35.292Z,60.00
2019-04-10T03:35:15.273Z,59.90
2019-04-10T03:36:51.717Z,59.90
2019-04-10T03:38:27.892Z,59.90
2019-04-10T03:40:03.633Z,59.90
2019-04-10T03:41:40.109Z,59.90
2019-04-10T03:43:15.767Z,59.90
2019-04-10T03:44:51.435Z,59.90
2019-04-10T03:46:27.705Z,59.90
2019-04-10T03:48:04.773Z,60.00
2019-04-10T03:49:40.769Z,60.10
2019-04-10T03:51:18.552Z,59.90
2019-04-10T03:52:54.177Z,59.90
2019-04-10T03:54:30.203Z,59.90
2019-04-10T03:56:07.557Z,60.00
2019-04-10T03:57:43.236Z,59.90
2019-04-10T03:59:20.118Z,59.90
2019-04-10T04:00:56.143Z,59.80
2019-04-10T04:02:31.679Z,59.80
2019-04-10T04:04:07.203Z,60.20
2019-04-10T04:05:43.098Z,60.20
2019-04-10T04:07:18.627Z,60.00
2019-04-10T04:09:04.277Z,59.90
2019-04-10T04:10:31.656Z,59.90
2019-04-10T04:12:07.194Z,59.80
2019-04-10T04:13:43.763Z,59.80
2019-04-10T04:15:19.930Z,59.90
2019-04-10T04:16:55.649Z,59.90
2019-04-10T04:18:31.268Z,59.90
2019-04-10T04:20:06.927Z,59.90
2019-04-10T04:21:42.464Z,59.90
2019-04-10T04:23:18.035Z,59.90
2019-04-10T04:24:53.549Z,59.90
2019-04-10T04:26:29.615Z,59.80
2019-04-10T04:28:06.688Z,59.90
2019-04-10T04:29:43.169Z,59.90
2019-04-10T04:31:19.265Z,59.90
2019-04-10T04:32:54.792Z,60.00
2019-04-10T04:34:31.300Z,60.00
2019-04-10T04:36:06.899Z,60.10
2019-04-10T04:37:42.437Z,60.20
2019-04-10T04:39:24.957Z,60.00
2019-04-10T04:40:55.485Z,59.90
2019-04-10T04:42:30.982Z,59.90
2019-04-10T04:44:06.508Z,59.90
2019-04-10T04:45:42.274Z,59.90
2019-04-10T04:47:18.204Z,59.90
2019-04-10T04:48:54.295Z,60.00
2019-04-10T04:50:29.962Z,60.00
2019-04-10T04:52:06.950Z,60.00
2019-04-10T04:53:44.132Z,59.90
2019-04-10T04:55:19.808Z,59.90
2019-04-10T04:56:56.865Z,59.90
2019-04-10T04:58:32.394Z,59.90
2019-04-10T05:00:09.508Z,59.90
2019-04-10T05:01:45.137Z,59.80
2019-04-10T05:03:20.892Z,59.90
2019-04-10T05:04:58.150Z,59.90
2019-04-10T05:06:33.737Z,59.90
2019-04-10T05:08:10.259Z,59.80
2019-04-10T05:09:45.995Z,59.80
2019-04-10T05:11:22.343Z,59.70
2019-04-10T05:12:57.927Z,59.70
2019-04-10T05:14:33.565Z,59.50
2019-04-10T05:16:10.083Z,59.40
2019-04-10T05:17:45.777Z,59.30
2019-04-10T05:19:21.306Z,59.30
2019-04-10T05:20:56.835Z,59.30
2019-04-10T05:22:34.029Z,59.30
2019-04-10T05:24:09.659Z,59.30
2019-04-10T05:25:45.515Z,59.20
2019-04-10T05:27:22.551Z,59.20
2019-04-10T05:28:58.222Z,59.20
2019-04-10T05:30:34.063Z,59.30
2019-04-10T05:32:09.601Z,59.30
2019-04-10T05:33:45.508Z,59.30
2019-04-10T05:35:21.509Z,59.20
2019-04-10T05:36:57.147Z,59.10
2019-04-10T05:38:34.057Z,58.90
2019-04-10T05:40:09.995Z,58.80
2019-04-10T05:41:46.934Z,58.70
2019-04-10T05:43:22.701Z,58.40
2019-04-10T05:44:58.665Z,58.00
2019-04-10T05:46:34.269Z,57.80
2019-04-10T05:48:11.002Z,57.80
2019-04-10T05:49:47.121Z,57.70
2019-04-10T05:51:23.347Z,57.20
2019-04-10T05:53:00.038Z,57.00
2019-04-10T05:54:35.698Z,57.00
2019-04-10T05:56:11.995Z,56.60
2019-04-10T05:57:47.639Z,56.50
2019-04-10T05:59:23.922Z,56.30
2019-04-10T06:01:01.247Z,56.20
2019-04-10T06:02:36.802Z,56.30
2019-04-10T06:04:13.298Z,56.00
2019-04-10T06:05:49.303Z,55.90
2019-04-10T06:07:25.273Z,55.70
2019-04-10T06:09:00.866Z,55.60
2019-04-10T06:10:38.034Z,55.50
2019-04-10T06:12:13.929Z,55.10
2019-04-10T06:13:50.452Z,54.90
2019-04-10T06:15:26.607Z,54.80
2019-04-10T06:17:04.126Z,54.50
2019-04-10T06:18:39.628Z,54.30
2019-04-10T06:20:15.705Z,54.10
2019-04-10T06:21:52.364Z,53.90
2019-04-10T06:23:27.996Z,53.90
2019-04-10T06:25:08.675Z,53.80
2019-04-10T06:26:43.742Z,53.30
2019-04-10T06:28:19.253Z,52.60
2019-04-10T06:29:55.216Z,52.40
2019-04-10T06:31:30.896Z,52.30
2019-04-10T06:33:07.472Z,53.00
2019-04-10T06:34:43.133Z,51.20
2019-04-10T06:36:19.510Z,51.00
2019-04-10T06:37:55.170Z,50.90
2019-04-10T06:39:31.034Z,50.50
2019-04-10T06:41:06.764Z,50.30
2019-04-10T06:42:48.492Z,50.30
2019-04-10T06:44:19.603Z,50.10
2019-04-10T06:45:55.818Z,49.40
2019-04-10T06:47:31.402Z,49.20
2019-04-10T06:49:07.796Z,49.20
2019-04-10T06:50:44.762Z,48.40
2019-04-10T06:52:21.474Z,48.50
2019-04-10T06:54:04.568Z,48.50
2019-04-10T06:55:34.367Z,48.40
2019-04-10T06:57:10.436Z,48.40
2019-04-10T06:58:46.057Z,47.70
2019-04-10T07:00:22.650Z,47.30
2019-04-10T07:02:11.442Z,47.00
2019-04-10T07:03:49.604Z,46.70
2019-04-10T07:05:15.013Z,46.70
2019-04-10T07:06:58.717Z,45.80
2019-04-10T07:08:27.984Z,45.90
2019-04-10T07:10:19.738Z,46.20
2019-04-10T07:11:42.865Z,46.40
2019-04-10T07:13:19.607Z,45.90
2019-04-10T07:14:58.208Z,45.40
2019-04-10T07:16:35.380Z,45.10
2019-04-10T07:18:14.281Z,45.10
2019-04-10T07:19:48.006Z,44.80
2019-04-10T07:21:24.291Z,44.90
2019-04-10T07:22:59.841Z,44.40
2019-04-10T07:24:38.904Z,44.30
2019-04-10T07:26:18.446Z,44.20
2019-04-10T07:27:50.169Z,44.20
2019-04-10T07:29:27.736Z,44.30
2019-04-10T07:31:07.267Z,44.30
2019-04-10T07:32:44.227Z,43.70
2019-04-10T07:34:23.887Z,43.70
2019-04-10T07:35:56.720Z,43.90
2019-04-10T07:37:32.325Z,43.70
2019-04-10T07:39:09.674Z,42.20
2019-04-10T07:40:45.290Z,41.80
2019-04-10T07:42:28.573Z,41.90
2019-04-10T07:43:58.345Z,42.50
2019-04-10T07:45:35.590Z,42.50
2019-04-10T07:47:11.356Z,42.50
2019-04-10T07:48:46.892Z,41.90
2019-04-10T07:50:22.663Z,41.80
2019-04-10T07:51:58.626Z,41.70
2019-04-10T07:53:35.250Z,41.70
2019-04-10T07:55:10.967Z,42.10
2019-04-10T07:56:47.272Z,42.50
2019-04-10T07:58:23.624Z,42.30
2019-04-10T07:59:59.542Z,42.30
2019-04-10T08:01:35.459Z,42.00
2019-04-10T08:03:11.186Z,41.60
2019-04-10T08:04:47.345Z,41.20
2019-04-10T08:06:23.485Z,41.10
2019-04-10T08:07:59.498Z,41.30
2019-04-10T08:09:35.647Z,40.70
2019-04-10T08:11:11.278Z,40.30
2019-04-10T08:12:50.903Z,41.00
2019-04-10T08:14:24.038Z,40.40
2019-04-10T08:16:00.625Z,40.80
2019-04-10T08:17:36.881Z,41.20
2019-04-10T08:19:12.509Z,40.20
2019-04-10T08:20:48.878Z,39.60
2019-04-10T08:22:24.778Z,40.00
2019-04-10T08:24:00.461Z,39.50
2019-04-10T08:25:36.029Z,39.20
2019-04-10T08:27:11.753Z,38.10
2019-04-10T08:28:47.572Z,38.00
2019-04-10T08:30:23.772Z,37.00
2019-04-10T08:31:59.321Z,37.40
2019-04-10T08:33:35.173Z,37.00
2019-04-10T08:35:11.938Z,36.40
2019-04-10T08:36:47.941Z,37.10
2019-04-10T08:38:24.014Z,36.80
2019-04-10T08:39:59.603Z,36.90
2019-04-10T08:41:35.214Z,36.60
2019-04-10T08:43:11.994Z,36.40
2019-04-10T08:44:48.658Z,36.10
2019-04-10T08:46:24.350Z,35.90
2019-04-10T08:47:59.861Z,35.90
2019-04-10T08:49:35.403Z,35.50
2019-04-10T08:51:12.434Z,36.00
2019-04-10T08:52:48.698Z,35.70
2019-04-10T08:54:24.261Z,34.90
2019-04-10T08:56:00.797Z,35.20
2019-04-10T08:57:36.714Z,35.20
2019-04-10T08:59:12.339Z,34.50
2019-04-10T09:00:49.842Z,34.40
2019-04-10T09:02:26.184Z,34.30
2019-04-10T09:04:01.832Z,34.70
2019-04-10T09:05:37.558Z,35.20
2019-04-10T09:07:13.748Z,35.60
2019-04-10T09:08:50.859Z,35.00
2019-04-10T09:10:26.492Z,35.10
2019-04-10T09:12:02.012Z,35.20
2019-04-10T09:13:37.554Z,35.50
2019-04-10T09:15:13.970Z,35.60
2019-04-10T09:16:49.598Z,35.70
2019-04-10T09:18:25.240Z,35.60
2019-04-10T09:20:00.786Z,36.50
2019-04-10T09:21:36.332Z,36.40
2019-04-10T09:23:28.940Z,35.80
2019-04-10T09:24:49.096Z,35.90
2019-04-10T09:26:24.628Z,35.60
2019-04-10T09:28:00.275Z,35.50
2019-04-10T09:29:36.203Z,35.50
2019-04-10T09:31:11.737Z,35.30
2019-04-10T09:32:47.259Z,35.30
2019-04-10T09:34:23.420Z,35.50
2019-04-10T09:35:59.086Z,35.60
2019-04-10T09:37:34.617Z,35.50
2019-04-10T09:39:10.147Z,34.80
2019-04-10T09:40:46.763Z,34.40
2019-04-10T09:42:23.515Z,34.40
2019-04-10T09:44:00.230Z,34.90
2019-04-10T09:45:35.892Z,35.20
2019-04-10T09:47:11.814Z,35.20
2019-04-10T09:48:47.690Z,35.70
2019-04-10T09:50:23.456Z,35.80
2019-04-10T09:52:00.664Z,35.30
2019-04-10T09:53:37.176Z,34.90
2019-04-10T09:55:13.888Z,35.10
2019-04-10T09:56:50.625Z,35.90
2019-04-10T09:58:26.276Z,35.80
2019-04-10T10:00:01.773Z,35.10
2019-04-10T10:01:38.148Z,35.40
2019-04-10T10:03:13.673Z,35.80
2019-04-10T10:04:50.430Z,35.40
2019-04-10T10:06:31.934Z,35.50
2019-04-10T10:08:04.347Z,35.20
2019-04-10T10:09:40.960Z,35.50
2019-04-10T10:11:16.692Z,35.20
2019-04-10T10:12:52.665Z,34.80
2019-04-10T10:14:31.973Z,34.80
2019-04-10T10:16:06.541Z,34.30
2019-04-10T10:17:42.071Z,34.20
2019-04-10T10:19:18.284Z,34.10
2019-04-10T10:20:54.316Z,33.80
2019-04-10T10:22:30.920Z,33.80
2019-04-10T10:24:07.097Z,34.10
2019-04-10T10:25:43.638Z,34.70
2019-04-10T10:27:20.226Z,34.60
2019-04-10T10:28:56.513Z,34.40
2019-04-10T10:30:33.684Z,34.40
2019-04-10T10:32:10.851Z,34.20
2019-04-10T10:33:48.120Z,34.20
2019-04-10T10:35:23.722Z,34.50
2019-04-10T10:37:00.111Z,33.80
2019-04-10T10:38:35.661Z,33.60
2019-04-10T10:40:12.440Z,33.50
2019-04-10T10:41:48.972Z,33.10
2019-04-10T10:43:24.710Z,32.80
2019-04-10T10:45:00.630Z,32.40
2019-04-10T10:46:36.277Z,32.20
2019-04-10T10:48:11.791Z,32.70
2019-04-10T10:49:48.734Z,33.00
2019-04-10T10:51:24.293Z,32.20
2019-04-10T10:52:59.843Z,32.20
2019-04-10T10:54:35.372Z,32.80
2019-04-10T10:56:11.855Z,32.70
2019-04-10T10:57:47.815Z,32.80
2019-04-10T10:59:23.331Z,33.30
2019-04-10T11:00:59.853Z,33.70
2019-04-10T11:02:36.327Z,33.60
2019-04-10T11:04:12.947Z,33.50
2019-04-10T11:05:50.654Z,33.10
2019-04-10T11:07:27.006Z,32.70
2019-04-10T11:09:04.111Z,33.10
2019-04-10T11:10:41.347Z,33.30
2019-04-10T11:12:17.696Z,33.50
2019-04-10T11:13:53.401Z,34.10
2019-04-10T11:15:28.966Z,33.60
2019-04-10T11:17:05.412Z,33.60
2019-04-10T11:18:42.428Z,33.50
2019-04-10T11:20:18.071Z,33.10
2019-04-10T11:21:54.693Z,33.20
2019-04-10T11:23:30.615Z,33.60
2019-04-10T11:25:08.078Z,33.00
2019-04-10T11:26:44.003Z,32.60
2019-04-10T11:28:20.686Z,33.10
2019-04-10T11:29:57.546Z,33.00
2019-04-10T11:31:33.343Z,33.40
2019-04-10T11:33:10.973Z,33.70
2019-04-10T11:34:46.920Z,33.70
2019-04-10T11:36:23.601Z,33.90
2019-04-10T11:38:00.994Z,33.70
2019-04-10T11:39:39.977Z,34.00
2019-04-10T11:41:14.997Z,34.70
2019-04-10T11:42:51.526Z,34.40
2019-04-10T11:44:28.370Z,34.20
2019-04-10T11:46:04.192Z,34.20
2019-04-10T11:47:40.372Z,34.40
2019-04-10T11:49:17.815Z,34.10
2019-04-10T11:50:58.991Z,34.10
2019-04-10T11:52:38.634Z,34.40
2019-04-10T11:54:12.441Z,34.50
2019-04-10T11:55:50.203Z,34.80
2019-04-10T11:57:23.102Z,34.90
2019-04-10T11:58:59.176Z,35.00
2019-04-10T12:00:47.498Z,35.00
2019-04-10T12:02:21.141Z,35.30
2019-04-10T12:03:56.683Z,35.30
2019-04-10T12:05:32.084Z,34.80
2019-04-10T12:07:09.779Z,34.60
2019-04-10T12:09:09.578Z,34.50
2019-04-10T12:11:59.712Z,34.60
2019-04-10T12:13:35.237Z,34.20
2019-04-10T12:15:10.910Z,34.00
2019-04-10T12:16:47.415Z,34.20
2019-04-10T12:18:23.051Z,33.80
2019-04-10T12:19:58.583Z,33.50
2019-04-10T12:21:34.459Z,33.50
2019-04-10T12:23:10.699Z,33.40
2019-04-10T12:24:49.673Z,33.20
2019-04-10T12:26:23.776Z,33.20
2019-04-10T12:27:59.388Z,33.20
2019-04-10T12:29:35.022Z,33.20
2019-04-10T12:31:10.536Z,32.90
2019-04-10T12:32:47.410Z,32.60
2019-04-10T12:34:24.318Z,32.60
2019-04-10T12:36:00.406Z,32.40
2019-04-10T12:37:36.912Z,32.60
2019-04-10T12:39:12.630Z,33.10
2019-04-10T12:40:48.415Z,33.30
2019-04-10T12:42:24.239Z,33.00
2019-04-10T12:43:59.767Z,32.90
2019-04-10T12:45:36.008Z,32.50
2019-04-10T12:47:11.712Z,31.80
2019-04-10T12:48:47.321Z,32.10
2019-04-10T12:50:22.910Z,32.30
2019-04-10T12:52:00.334Z,32.60
2019-04-10T12:53:35.932Z,31.60
2019-04-10T12:55:12.281Z,31.50
2019-04-10T12:56:48.522Z,31.50
2019-04-10T12:58:25.133Z,31.70
2019-04-10T13:00:04.159Z,31.70
2019-04-10T13:01:39.156Z,32.10
2019-04-10T13:03:15.042Z,32.10
2019-04-10T13:04:50.561Z,32.00
2019-04-10T13:06:26.286Z,31.50
2019-04-10T13:08:14.653Z,32.00
2019-04-10T13:09:40.154Z,32.10
2019-04-10T13:11:16.279Z,31.60
2019-04-10T13:12:51.857Z,31.70
2019-04-10T13:14:27.490Z,31.90
2019-04-10T13:16:03.647Z,31.50
2019-04-10T13:17:39.172Z,31.50
2019-04-10T13:19:16.590Z,31.70
2019-04-10T13:20:52.227Z,31.50
2019-04-10T13:22:28.481Z,31.90
2019-04-10T13:24:04.195Z,31.70
2019-04-10T13:25:40.748Z,31.60
2019-04-10T13:27:16.776Z,31.50
2019-04-10T13:28:52.361Z,31.80
2019-04-10T13:30:39.977Z,31.70
2019-04-10T13:32:07.656Z,31.70
2019-04-10T13:33:43.274Z,32.00
2019-04-10T13:35:18.845Z,31.50
2019-04-10T13:36:55.675Z,31.30
2019-04-10T13:38:33.975Z,31.40
2019-04-10T13:40:09.272Z,31.40
2019-04-10T13:41:45.794Z,31.60
2019-04-10T13:43:22.151Z,31.80
2019-04-10T13:44:57.837Z,31.80
2019-04-10T13:46:35.250Z,31.50
2019-04-10T13:48:10.833Z,31.30
2019-04-10T13:49:46.388Z,31.70
2019-04-10T13:51:21.901Z,32.20
2019-04-10T13:52:58.015Z,32.20
2019-04-10T13:54:34.565Z,32.30
2019-04-10T13:56:10.154Z,32.10
2019-04-10T13:57:46.626Z,32.10
2019-04-10T13:59:22.673Z,31.70
2019-04-10T14:00:59.027Z,31.50
2019-04-10T14:02:37.225Z,31.70
2019-04-10T14:04:13.004Z,31.90
2019-04-10T14:05:49.434Z,32.10
2019-04-10T14:07:25.351Z,31.90
2019-04-10T14:09:16.504Z,31.70
2019-04-10T14:10:41.814Z,32.40
2019-04-10T14:12:18.637Z,33.90
2019-04-10T14:13:54.342Z,34.60
2019-04-10T14:15:30.370Z,35.00
2019-04-10T14:17:06.934Z,34.00
2019-04-10T14:18:43.141Z,33.80
2019-04-10T14:20:20.312Z,33.90
2019-04-10T14:21:57.533Z,33.80
2019-04-10T14:23:33.318Z,33.50
2019-04-10T14:25:23.122Z,33.40
2019-04-10T14:27:14.171Z,33.10
2019-04-10T14:28:49.937Z,34.20
2019-04-10T14:30:27.207Z,34.30
2019-04-10T14:32:05.048Z,33.40
2019-04-10T14:33:40.619Z,33.80
2019-04-10T14:35:16.820Z,33.90
2019-04-10T14:36:52.729Z,34.10
2019-04-10T14:38:28.346Z,33.70
2019-04-10T14:40:08.407Z,33.80
2019-04-10T14:41:44.251Z,33.90
2019-04-10T14:43:20.842Z,33.90
2019-04-10T14:44:57.183Z,34.10
2019-04-10T14:46:33.711Z,34.00
2019-04-10T14:48:09.236Z,33.80
2019-04-10T14:49:45.169Z,33.80
2019-04-10T14:51:21.976Z,34.30
2019-04-10T14:52:59.195Z,33.80
2019-04-10T14:54:35.682Z,34.10
2019-04-10T14:56:11.945Z,34.20
2019-04-10T14:57:47.482Z,34.40
2019-04-10T14:59:24.029Z,34.00
2019-04-10T15:00:59.826Z,33.90
2019-04-10T15:02:35.515Z,33.80
2019-04-10T15:04:11.054Z,33.90
2019-04-10T15:05:51.000Z,34.20
2019-04-10T15:07:24.271Z,33.50
2019-04-10T15:08:59.909Z,33.20
2019-04-10T15:10:35.413Z,33.40
2019-04-10T15:12:10.940Z,34.00
2019-04-10T15:13:46.755Z,34.50
2019-04-10T15:15:22.563Z,34.20
2019-04-10T15:17:01.767Z,33.80
2019-04-10T15:18:35.298Z,33.60
2019-04-10T15:20:11.190Z,33.60
2019-04-10T15:21:47.165Z,33.80
2019-04-10T15:23:22.721Z,34.10
2019-04-10T15:24:59.278Z,34.60
2019-04-10T15:26:36.143Z,34.80
2019-04-10T15:28:11.706Z,34.30
2019-04-10T15:29:47.238Z,35.40
2019-04-10T15:31:24.960Z,34.70
2019-04-10T15:33:00.424Z,34.50
2019-04-10T15:34:36.008Z,34.60
2019-04-10T15:36:11.791Z,33.70
2019-04-10T15:37:47.366Z,33.70
2019-04-10T15:39:32.047Z,33.80
2019-04-10T15:41:00.911Z,34.60
2019-04-10T15:42:37.420Z,34.20
2019-04-10T15:44:14.889Z,34.30
2019-04-10T15:45:50.494Z,34.50
2019-04-10T15:47:27.033Z,34.50
2019-04-10T15:49:04.154Z,34.40
2019-04-10T15:50:41.350Z,34.60
2019-04-10T15:52:17.725Z,34.80
2019-04-10T15:53:53.566Z,34.60
2019-04-10T15:55:29.937Z,34.30
2019-04-10T15:57:06.911Z,34.10
2019-04-10T15:58:43.695Z,34.20
2019-04-10T16:00:21.215Z,34.20
2019-04-10T16:01:57.326Z,34.20
2019-04-10T16:03:32.913Z,34.20
2019-04-10T16:05:09.174Z,34.50
2019-04-10T16:06:45.881Z,34.70
2019-04-10T16:08:22.299Z,34.30
2019-04-10T16:10:02.348Z,33.80
2019-04-10T16:11:45.916Z,33.80
2019-04-10T16:13:24.048Z,34.40
2019-04-10T16:15:00.564Z,33.90
2019-04-10T16:16:48.787Z,33.80
2019-04-10T16:18:28.766Z,34.00
2019-04-10T16:20:13.740Z,34.00
2019-04-10T16:21:50.089Z,34.00
2019-04-10T16:23:37.660Z,34.20
2019-04-10T16:25:15.808Z,34.30
2019-04-10T16:26:51.732Z,34.30
2019-04-10T16:28:27.384Z,34.40
2019-04-10T16:30:03.856Z,34.60
2019-04-10T16:31:39.758Z,34.70
2019-04-10T16:33:15.298Z,34.90
2019-04-10T16:35:01.462Z,35.10
2019-04-10T16:36:50.099Z,35.20
2019-04-10T16:38:46.959Z,35.30
2019-04-10T16:40:26.862Z,35.00
2019-04-10T16:43:38.518Z,34.50
2019-04-10T16:45:15.739Z,35.30
2019-04-10T16:46:53.153Z,35.40
2019-04-10T16:48:28.806Z,35.30
2019-04-10T16:50:07.093Z,35.10
2019-04-10T16:51:42.668Z,35.30
2019-04-10T16:53:20.111Z,35.50
2019-04-10T16:54:55.681Z,35.60
2019-04-10T16:56:31.855Z,35.70
2019-04-10T16:58:07.698Z,35.80
2019-04-10T16:59:43.342Z,35.90
2019-04-10T17:01:18.878Z,35.80
2019-04-10T17:02:54.407Z,36.00
2019-04-10T17:04:29.929Z,35.80
2019-04-10T17:06:06.053Z,36.00
2019-04-10T17:07:43.412Z,36.40
2019-04-10T17:09:23.087Z,36.00
2019-04-10T17:10:58.843Z,36.10
2019-04-10T17:12:34.541Z,36.10
2019-04-10T17:14:11.026Z,36.10
2019-04-10T17:15:48.638Z,36.20
2019-04-10T17:17:23.965Z,36.30
2019-04-10T17:18:59.483Z,36.40
2019-04-10T17:20:35.923Z,36.40
2019-04-10T17:22:11.790Z,36.30
2019-04-10T17:23:47.563Z,36.30
2019-04-10T17:25:24.304Z,36.40
2019-04-10T17:27:01.458Z,36.40
2019-04-10T17:28:37.220Z,36.30
2019-04-10T17:30:13.587Z,36.20
2019-04-10T17:31:49.114Z,36.30
2019-04-10T17:33:25.477Z,36.20
2019-04-10T17:35:03.148Z,36.20
2019-04-10T17:36:41.027Z,36.30
2019-04-10T17:38:16.774Z,36.30
2019-04-10T17:39:52.423Z,36.30
2019-04-10T17:41:28.094Z,36.30
2019-04-10T17:43:05.076Z,36.40
2019-04-10T17:44:41.997Z,36.40
2019-04-10T17:46:19.395Z,36.50
2019-04-10T17:47:56.463Z,36.40
2019-04-10T17:49:33.891Z,36.50
2019-04-10T17:51:11.954Z,37.30
2019-04-10T17:52:49.048Z,36.80
2019-04-10T17:54:25.080Z,36.70
2019-04-10T17:56:02.101Z,36.90
2019-04-10T17:57:40.398Z,36.90
2019-04-10T17:59:16.966Z,37.00
2019-04-10T18:00:54.172Z,37.00
2019-04-10T18:04:07.527Z,36.70
2019-04-10T18:05:43.199Z,37.00
2019-04-10T18:07:19.678Z,37.50
2019-04-10T18:08:55.368Z,37.60
2019-04-10T18:10:42.696Z,37.70
2019-04-10T18:13:46.878Z,38.90
2019-04-10T18:15:24.139Z,37.80
2019-04-10T18:18:35.983Z,37.20
2019-04-10T18:20:12.619Z,39.20
2019-04-10T18:26:36.890Z,37.50
2019-04-10T18:28:13.638Z,37.60
2019-04-10T18:29:49.635Z,37.50
2019-04-10T18:33:03.395Z,36.50
2019-04-10T18:34:40.377Z,37.10
2019-04-10T18:37:55.112Z,36.60
2019-04-10T18:39:30.707Z,36.60
2019-04-10T18:41:08.368Z,36.60
2019-04-10T18:42:43.795Z,37.10
2019-04-10T18:44:20.525Z,37.10
2019-04-10T18:46:06.135Z,37.10
2019-04-10T18:47:36.433Z,36.30
2019-04-10T18:49:11.458Z,36.80
2019-04-10T18:52:23.477Z,36.30
2019-04-10T18:53:59.691Z,37.00
2019-04-10T18:55:36.378Z,36.90
2019-04-10T18:57:12.099Z,36.60
2019-04-10T18:58:49.527Z,37.00
2019-04-10T19:00:40.618Z,36.30
2019-04-10T19:02:18.336Z,36.80
2019-04-10T19:04:02.347Z,37.20
2019-04-10T19:07:19.499Z,36.60
2019-04-10T19:09:06.382Z,37.10
2019-04-10T19:10:34.641Z,36.70
2019-04-10T19:13:46.740Z,36.60
2019-04-10T19:15:22.460Z,36.90
2019-04-10T19:16:58.259Z,37.10
2019-04-10T19:20:10.959Z,37.10
2019-04-10T19:21:48.329Z,37.00
2019-04-10T19:23:24.006Z,37.20
2019-04-10T19:25:00.723Z,37.50
2019-04-10T19:29:48.730Z,37.50
2019-04-10T19:31:25.901Z,37.80
2019-04-10T19:34:39.302Z,37.50
2019-04-10T19:37:51.577Z,37.80
2019-04-10T19:39:29.911Z,37.70
2019-04-10T19:41:05.893Z,37.80
2019-04-10T19:42:41.785Z,38.30
2019-04-10T19:44:19.090Z,39.80
2019-04-10T19:49:06.196Z,38.00
2019-04-10T19:50:41.704Z,43.50
2019-04-10T19:53:53.662Z,39.90
2019-04-10T19:55:29.542Z,39.00
2019-04-10T20:03:28.257Z,42.10
2019-04-10T20:05:05.279Z,39.80
2019-04-10T20:08:16.108Z,39.40
2019-04-10T20:09:52.715Z,39.90
2019-04-10T20:11:37.580Z,40.00
2019-04-10T20:14:42.486Z,39.70
2019-04-10T20:16:19.341Z,40.00
2019-04-10T20:19:30.722Z,44.60
2019-04-10T20:21:06.369Z,40.50
2019-04-10T20:22:41.901Z,40.70
2019-04-10T20:24:17.396Z,40.50
2019-04-10T20:29:04.493Z,40.10
2019-04-10T20:30:40.506Z,40.90
2019-04-10T20:33:51.467Z,40.20
2019-04-10T20:37:06.647Z,40.30
2019-04-10T20:40:14.443Z,40.60
2019-04-10T20:43:29.503Z,41.10
2019-04-10T20:46:40.714Z,40.90
2019-04-10T20:49:51.617Z,41.10
2019-04-10T20:51:28.267Z,42.20
2019-04-10T20:54:41.240Z,44.40
2019-04-10T20:56:18.299Z,42.00
2019-04-10T20:57:54.202Z,41.80
2019-04-10T20:59:30.565Z,42.10
2019-04-10T21:01:06.155Z,42.00
2019-04-10T21:05:52.803Z,42.30
2019-04-10T21:07:28.339Z,42.70
2019-04-10T21:15:30.086Z,43.30
2019-04-10T21:18:41.858Z,44.00
2019-04-10T21:20:18.210Z,43.50
2019-04-10T21:21:53.768Z,43.90
2019-04-10T21:23:29.376Z,43.80
2019-04-10T21:26:42.085Z,43.40
2019-04-10T21:28:18.378Z,44.10
2019-04-10T21:31:52.525Z,45.50
2019-04-10T21:36:45.572Z,49.30
2019-04-10T21:38:21.495Z,44.70
2019-04-10T21:39:58.161Z,46.30
2019-04-10T21:41:34.699Z,46.70
2019-04-10T21:43:10.561Z,45.00
2019-04-10T21:44:46.086Z,45.00
2019-04-10T21:46:22.847Z,45.10
2019-04-10T21:47:58.636Z,44.90
2019-04-10T21:49:34.165Z,48.00
2019-04-10T21:51:10.868Z,45.10
2019-04-10T21:54:22.601Z,44.90
2019-04-10T21:55:59.944Z,51.40
2019-04-10T22:00:51.302Z,44.70
2019-04-10T22:02:27.474Z,45.10
2019-04-10T22:04:06.149Z,45.50
2019-04-10T22:05:44.538Z,45.50